sensor_id;sensor_type;location;lat;lon;timestamp;P1;durP1;ratioP1;P2;durP2;ratioP2
71176;SDS011;58877;51.992;4.504;2024-03-25T00:00:12;8.85;;;5.27;;
71176;SDS011;58877;51.992;4.504;2024-03-25T00:02:41;8.22;;;4.86;;
71176;SDS011;58877;51.992;4.504;2024-03-25T00:05:07;8.90;;;5.30;;
71176;SDS011;58877;51.992;4.504;2024-03-25T00:07:39;9.64;;;5.68;;
71176;SDS011;58877;51.992;4.504;2024-03-25T00:10:06;11.03;;;6.45;;
71176;SDS011;58877;51.992;4.504;2024-03-25T00:12:33;10.11;;;5.92;;
71176;SDS011;58877;51.992;4.504;2024-03-25T00:14:59;8.88;;;5.30;;
71176;SDS011;58877;51.992;4.504;2024-03-25T00:17:25;8.59;;;5.19;;
71176;SDS011;58877;51.992;4.504;2024-03-25T00:19:51;8.47;;;5.18;;
71176;SDS011;58877;51.992;4.504;2024-03-25T00:22:20;7.70;;;4.71;;
71176;SDS011;58877;51.992;4.504;2024-03-25T00:24:47;9.08;;;5.48;;
71176;SDS011;58877;51.992;4.504;2024-03-25T00:27:14;8.14;;;4.82;;
71176;SDS011;58877;51.992;4.504;2024-03-25T00:29:41;8.60;;;5.14;;
71176;SDS011;58877;51.992;4.504;2024-03-25T00:32:07;8.41;;;5.01;;
71176;SDS011;58877;51.992;4.504;2024-03-25T00:34:34;9.84;;;5.85;;
71176;SDS011;58877;51.992;4.504;2024-03-25T00:37:00;9.09;;;5.40;;
71176;SDS011;58877;51.992;4.504;2024-03-25T00:39:26;8.22;;;4.88;;
71176;SDS011;58877;51.992;4.504;2024-03-25T00:41:53;8.14;;;4.85;;
71176;SDS011;58877;51.992;4.504;2024-03-25T00:44:19;10.09;;;6.05;;
71176;SDS011;58877;51.992;4.504;2024-03-25T00:46:45;8.21;;;4.89;;
71176;SDS011;58877;51.992;4.504;2024-03-25T00:49:11;9.86;;;5.83;;
71176;SDS011;58877;51.992;4.504;2024-03-25T00:51:37;9.43;;;5.65;;
71176;SDS011;58877;51.992;4.504;2024-03-25T00:54:03;8.43;;;5.15;;
71176;SDS011;58877;51.992;4.504;2024-03-25T00:56:30;8.14;;;4.98;;
71176;SDS011;58877;51.992;4.504;2024-03-25T00:58:56;8.59;;;5.25;;
71176;SDS011;58877;51.992;4.504;2024-03-25T01:01:27;8.10;;;4.91;;
71176;SDS011;58877;51.992;4.504;2024-03-25T01:03:53;7.49;;;4.54;;
71176;SDS011;58877;51.992;4.504;2024-03-25T01:06:19;7.64;;;4.63;;
71176;SDS011;58877;51.992;4.504;2024-03-25T01:08:44;7.87;;;4.72;;
71176;SDS011;58877;51.992;4.504;2024-03-25T01:11:10;7.77;;;4.65;;
71176;SDS011;58877;51.992;4.504;2024-03-25T01:13:35;8.41;;;5.10;;
71176;SDS011;58877;51.992;4.504;2024-03-25T01:16:01;9.12;;;5.56;;
71176;SDS011;58877;51.992;4.504;2024-03-25T01:18:26;7.31;;;4.62;;
71176;SDS011;58877;51.992;4.504;2024-03-25T01:20:53;7.45;;;4.71;;
71176;SDS011;58877;51.992;4.504;2024-03-25T01:23:19;7.15;;;4.45;;
71176;SDS011;58877;51.992;4.504;2024-03-25T01:25:45;7.24;;;4.55;;
71176;SDS011;58877;51.992;4.504;2024-03-25T01:28:11;6.37;;;4.07;;
71176;SDS011;58877;51.992;4.504;2024-03-25T01:30:36;7.82;;;4.92;;
71176;SDS011;58877;51.992;4.504;2024-03-25T01:33:04;7.40;;;4.61;;
71176;SDS011;58877;51.992;4.504;2024-03-25T01:35:30;8.20;;;5.05;;
71176;SDS011;58877;51.992;4.504;2024-03-25T01:37:56;7.91;;;5.02;;
71176;SDS011;58877;51.992;4.504;2024-03-25T01:40:22;7.41;;;4.74;;
71176;SDS011;58877;51.992;4.504;2024-03-25T01:42:58;8.16;;;5.17;;
71176;SDS011;58877;51.992;4.504;2024-03-25T01:45:26;8.12;;;5.09;;
71176;SDS011;58877;51.992;4.504;2024-03-25T01:48:17;7.46;;;4.69;;
71176;SDS011;58877;51.992;4.504;2024-03-25T01:51:13;8.19;;;5.13;;
71176;SDS011;58877;51.992;4.504;2024-03-25T01:53:42;7.11;;;4.49;;
71176;SDS011;58877;51.992;4.504;2024-03-25T01:56:12;8.09;;;5.05;;
71176;SDS011;58877;51.992;4.504;2024-03-25T01:58:40;7.50;;;4.68;;
71176;SDS011;58877;51.992;4.504;2024-03-25T02:01:06;7.58;;;4.78;;
71176;SDS011;58877;51.992;4.504;2024-03-25T02:03:39;8.40;;;5.31;;
71176;SDS011;58877;51.992;4.504;2024-03-25T02:06:07;7.59;;;4.79;;
71176;SDS011;58877;51.992;4.504;2024-03-25T02:08:38;6.16;;;3.91;;
71176;SDS011;58877;51.992;4.504;2024-03-25T02:11:06;7.14;;;4.57;;
71176;SDS011;58877;51.992;4.504;2024-03-25T02:13:32;6.75;;;4.36;;
71176;SDS011;58877;51.992;4.504;2024-03-25T02:15:58;7.13;;;4.55;;
71176;SDS011;58877;51.992;4.504;2024-03-25T02:18:24;6.40;;;4.13;;
71176;SDS011;58877;51.992;4.504;2024-03-25T02:20:50;6.12;;;4.07;;
71176;SDS011;58877;51.992;4.504;2024-03-25T02:23:15;7.03;;;4.65;;
71176;SDS011;58877;51.992;4.504;2024-03-25T02:25:42;5.73;;;3.80;;
71176;SDS011;58877;51.992;4.504;2024-03-25T02:28:08;6.68;;;4.41;;
71176;SDS011;58877;51.992;4.504;2024-03-25T02:30:34;6.74;;;4.43;;
71176;SDS011;58877;51.992;4.504;2024-03-25T02:33:02;5.61;;;3.72;;
71176;SDS011;58877;51.992;4.504;2024-03-25T02:35:28;6.49;;;4.28;;
71176;SDS011;58877;51.992;4.504;2024-03-25T02:37:54;5.95;;;4.07;;
71176;SDS011;58877;51.992;4.504;2024-03-25T02:40:20;5.96;;;4.03;;
71176;SDS011;58877;51.992;4.504;2024-03-25T02:42:56;5.65;;;3.73;;
71176;SDS011;58877;51.992;4.504;2024-03-25T02:45:27;6.52;;;4.30;;
71176;SDS011;58877;51.992;4.504;2024-03-25T02:47:53;4.67;;;3.20;;
71176;SDS011;58877;51.992;4.504;2024-03-25T02:50:19;5.04;;;3.51;;
71176;SDS011;58877;51.992;4.504;2024-03-25T02:52:44;6.14;;;4.25;;
71176;SDS011;58877;51.992;4.504;2024-03-25T02:55:10;6.85;;;4.55;;
71176;SDS011;58877;51.992;4.504;2024-03-25T02:57:35;6.09;;;4.11;;
71176;SDS011;58877;51.992;4.504;2024-03-25T03:00:01;6.09;;;4.18;;
71176;SDS011;58877;51.992;4.504;2024-03-25T03:02:27;6.57;;;4.50;;
71176;SDS011;58877;51.992;4.504;2024-03-25T03:04:53;5.19;;;3.61;;
71176;SDS011;58877;51.992;4.504;2024-03-25T03:07:19;6.37;;;4.50;;
71176;SDS011;58877;51.992;4.504;2024-03-25T03:09:57;5.81;;;4.07;;
71176;SDS011;58877;51.992;4.504;2024-03-25T03:12:35;5.09;;;3.64;;
71176;SDS011;58877;51.992;4.504;2024-03-25T03:15:05;6.14;;;4.32;;
71176;SDS011;58877;51.992;4.504;2024-03-25T03:17:34;6.38;;;4.48;;
71176;SDS011;58877;51.992;4.504;2024-03-25T03:20:00;6.46;;;4.42;;
71176;SDS011;58877;51.992;4.504;2024-03-25T03:22:25;7.46;;;5.02;;
71176;SDS011;58877;51.992;4.504;2024-03-25T03:24:51;6.69;;;4.50;;
71176;SDS011;58877;51.992;4.504;2024-03-25T03:27:16;6.76;;;4.70;;
71176;SDS011;58877;51.992;4.504;2024-03-25T03:29:43;7.19;;;4.93;;
71176;SDS011;58877;51.992;4.504;2024-03-25T03:32:08;5.24;;;3.71;;
71176;SDS011;58877;51.992;4.504;2024-03-25T03:34:34;6.29;;;4.39;;
71176;SDS011;58877;51.992;4.504;2024-03-25T03:37:03;6.24;;;4.34;;
71176;SDS011;58877;51.992;4.504;2024-03-25T03:39:29;7.30;;;5.02;;
71176;SDS011;58877;51.992;4.504;2024-03-25T03:41:55;6.24;;;4.25;;
71176;SDS011;58877;51.992;4.504;2024-03-25T03:44:21;5.20;;;3.71;;
71176;SDS011;58877;51.992;4.504;2024-03-25T03:46:46;4.55;;;3.37;;
71176;SDS011;58877;51.992;4.504;2024-03-25T03:49:12;5.81;;;4.24;;
71176;SDS011;58877;51.992;4.504;2024-03-25T03:51:38;5.56;;;3.98;;
71176;SDS011;58877;51.992;4.504;2024-03-25T03:54:03;6.31;;;4.55;;
71176;SDS011;58877;51.992;4.504;2024-03-25T03:56:29;6.22;;;4.47;;
71176;SDS011;58877;51.992;4.504;2024-03-25T03:58:54;5.57;;;4.04;;
71176;SDS011;58877;51.992;4.504;2024-03-25T04:01:20;6.95;;;4.91;;
71176;SDS011;58877;51.992;4.504;2024-03-25T04:03:46;6.29;;;4.44;;
71176;SDS011;58877;51.992;4.504;2024-03-25T04:06:12;5.65;;;4.03;;
71176;SDS011;58877;51.992;4.504;2024-03-25T04:08:39;5.50;;;3.87;;
71176;SDS011;58877;51.992;4.504;2024-03-25T04:11:05;6.42;;;4.52;;
71176;SDS011;58877;51.992;4.504;2024-03-25T04:13:32;6.07;;;4.25;;
71176;SDS011;58877;51.992;4.504;2024-03-25T04:16:05;6.14;;;4.37;;
71176;SDS011;58877;51.992;4.504;2024-03-25T04:18:32;5.97;;;4.16;;
71176;SDS011;58877;51.992;4.504;2024-03-25T04:20:59;5.80;;;4.05;;
71176;SDS011;58877;51.992;4.504;2024-03-25T04:23:24;4.96;;;3.50;;
71176;SDS011;58877;51.992;4.504;2024-03-25T04:25:51;6.92;;;4.82;;
71176;SDS011;58877;51.992;4.504;2024-03-25T04:28:16;6.37;;;4.33;;
71176;SDS011;58877;51.992;4.504;2024-03-25T04:30:43;5.71;;;3.87;;
71176;SDS011;58877;51.992;4.504;2024-03-25T04:33:08;6.61;;;4.52;;
71176;SDS011;58877;51.992;4.504;2024-03-25T04:35:34;6.37;;;4.41;;
71176;SDS011;58877;51.992;4.504;2024-03-25T04:38:00;5.09;;;3.63;;
71176;SDS011;58877;51.992;4.504;2024-03-25T04:40:27;4.31;;;3.10;;
71176;SDS011;58877;51.992;4.504;2024-03-25T04:43:03;4.59;;;3.45;;
71176;SDS011;58877;51.992;4.504;2024-03-25T04:45:39;4.94;;;3.64;;
71176;SDS011;58877;51.992;4.504;2024-03-25T04:48:05;5.34;;;3.96;;
71176;SDS011;58877;51.992;4.504;2024-03-25T04:50:33;4.87;;;3.62;;
71176;SDS011;58877;51.992;4.504;2024-03-25T04:52:59;5.37;;;4.00;;
71176;SDS011;58877;51.992;4.504;2024-03-25T04:55:25;5.91;;;4.30;;
71176;SDS011;58877;51.992;4.504;2024-03-25T04:57:51;4.58;;;3.42;;
71176;SDS011;58877;51.992;4.504;2024-03-25T05:00:17;4.02;;;3.08;;
71176;SDS011;58877;51.992;4.504;2024-03-25T05:02:43;4.89;;;3.66;;
71176;SDS011;58877;51.992;4.504;2024-03-25T05:05:12;4.59;;;3.46;;
71176;SDS011;58877;51.992;4.504;2024-03-25T05:07:37;5.35;;;3.93;;
71176;SDS011;58877;51.992;4.504;2024-03-25T05:13:58;6.61;;;4.65;;
71176;SDS011;58877;51.992;4.504;2024-03-25T05:16:36;5.87;;;4.28;;
71176;SDS011;58877;51.992;4.504;2024-03-25T05:19:02;6.06;;;4.39;;
71176;SDS011;58877;51.992;4.504;2024-03-25T05:21:29;5.20;;;3.90;;
71176;SDS011;58877;51.992;4.504;2024-03-25T05:23:56;5.39;;;4.00;;
71176;SDS011;58877;51.992;4.504;2024-03-25T05:26:21;5.94;;;4.40;;
71176;SDS011;58877;51.992;4.504;2024-03-25T05:28:52;4.98;;;3.75;;
71176;SDS011;58877;51.992;4.504;2024-03-25T05:31:20;4.94;;;3.78;;
71176;SDS011;58877;51.992;4.504;2024-03-25T05:33:47;5.49;;;4.10;;
71176;SDS011;58877;51.992;4.504;2024-03-25T05:36:12;5.48;;;4.06;;
71176;SDS011;58877;51.992;4.504;2024-03-25T05:38:38;5.50;;;4.13;;
71176;SDS011;58877;51.992;4.504;2024-03-25T05:41:17;5.86;;;4.35;;
71176;SDS011;58877;51.992;4.504;2024-03-25T05:46:42;6.50;;;4.77;;
71176;SDS011;58877;51.992;4.504;2024-03-25T05:49:08;6.49;;;4.86;;
71176;SDS011;58877;51.992;4.504;2024-03-25T05:51:34;5.64;;;4.41;;
71176;SDS011;58877;51.992;4.504;2024-03-25T05:54:00;5.64;;;4.31;;
71176;SDS011;58877;51.992;4.504;2024-03-25T05:56:25;5.13;;;3.95;;
71176;SDS011;58877;51.992;4.504;2024-03-25T05:58:58;5.10;;;3.99;;
71176;SDS011;58877;51.992;4.504;2024-03-25T06:01:23;5.37;;;4.09;;
71176;SDS011;58877;51.992;4.504;2024-03-25T06:03:49;4.92;;;3.88;;
71176;SDS011;58877;51.992;4.504;2024-03-25T06:06:15;4.34;;;3.55;;
71176;SDS011;58877;51.992;4.504;2024-03-25T06:08:41;4.37;;;3.58;;
71176;SDS011;58877;51.992;4.504;2024-03-25T06:11:06;4.37;;;3.63;;
71176;SDS011;58877;51.992;4.504;2024-03-25T06:13:32;5.59;;;4.70;;
71176;SDS011;58877;51.992;4.504;2024-03-25T06:15:58;4.84;;;4.22;;
71176;SDS011;58877;51.992;4.504;2024-03-25T06:18:26;4.55;;;3.91;;
71176;SDS011;58877;51.992;4.504;2024-03-25T06:20:52;4.27;;;3.67;;
71176;SDS011;58877;51.992;4.504;2024-03-25T06:23:22;3.96;;;3.43;;
71176;SDS011;58877;51.992;4.504;2024-03-25T06:25:52;4.10;;;3.62;;
71176;SDS011;58877;51.992;4.504;2024-03-25T06:28:19;4.57;;;3.93;;
71176;SDS011;58877;51.992;4.504;2024-03-25T06:30:45;4.16;;;3.48;;
71176;SDS011;58877;51.992;4.504;2024-03-25T06:33:31;4.96;;;4.18;;
71176;SDS011;58877;51.992;4.504;2024-03-25T06:36:16;4.49;;;3.74;;
71176;SDS011;58877;51.992;4.504;2024-03-25T06:38:45;5.79;;;4.53;;
71176;SDS011;58877;51.992;4.504;2024-03-25T06:41:11;5.76;;;4.43;;
71176;SDS011;58877;51.992;4.504;2024-03-25T06:43:39;6.01;;;4.48;;
71176;SDS011;58877;51.992;4.504;2024-03-25T06:46:06;5.83;;;4.42;;
71176;SDS011;58877;51.992;4.504;2024-03-25T06:48:32;5.23;;;3.99;;
71176;SDS011;58877;51.992;4.504;2024-03-25T06:50:59;5.66;;;4.27;;
71176;SDS011;58877;51.992;4.504;2024-03-25T06:53:26;5.36;;;4.06;;
71176;SDS011;58877;51.992;4.504;2024-03-25T06:55:59;6.30;;;4.77;;
71176;SDS011;58877;51.992;4.504;2024-03-25T06:58:36;5.24;;;4.06;;
71176;SDS011;58877;51.992;4.504;2024-03-25T07:01:08;5.70;;;4.40;;
71176;SDS011;58877;51.992;4.504;2024-03-25T07:06:31;5.96;;;4.66;;
71176;SDS011;58877;51.992;4.504;2024-03-25T07:08:58;5.84;;;4.73;;
71176;SDS011;58877;51.992;4.504;2024-03-25T07:11:36;6.50;;;5.36;;
71176;SDS011;58877;51.992;4.504;2024-03-25T07:14:02;6.40;;;5.27;;
71176;SDS011;58877;51.992;4.504;2024-03-25T07:16:45;7.02;;;5.95;;
71176;SDS011;58877;51.992;4.504;2024-03-25T07:19:14;6.71;;;5.62;;
71176;SDS011;58877;51.992;4.504;2024-03-25T07:21:40;7.76;;;6.54;;
71176;SDS011;58877;51.992;4.504;2024-03-25T07:24:06;6.58;;;5.91;;
71176;SDS011;58877;51.992;4.504;2024-03-25T07:26:41;6.04;;;5.62;;
71176;SDS011;58877;51.992;4.504;2024-03-25T07:29:10;7.54;;;6.95;;
71176;SDS011;58877;51.992;4.504;2024-03-25T07:31:53;7.38;;;6.79;;
71176;SDS011;58877;51.992;4.504;2024-03-25T07:34:19;7.02;;;6.69;;
71176;SDS011;58877;51.992;4.504;2024-03-25T07:36:45;7.27;;;6.82;;
71176;SDS011;58877;51.992;4.504;2024-03-25T07:39:13;7.77;;;7.17;;
71176;SDS011;58877;51.992;4.504;2024-03-25T07:41:42;7.94;;;7.62;;
71176;SDS011;58877;51.992;4.504;2024-03-25T07:44:08;8.45;;;8.24;;
71176;SDS011;58877;51.992;4.504;2024-03-25T07:46:37;7.81;;;7.73;;
71176;SDS011;58877;51.992;4.504;2024-03-25T07:49:02;8.06;;;7.98;;
71176;SDS011;58877;51.992;4.504;2024-03-25T07:51:29;8.38;;;8.33;;
71176;SDS011;58877;51.992;4.504;2024-03-25T07:53:54;8.87;;;8.80;;
71176;SDS011;58877;51.992;4.504;2024-03-25T07:56:20;9.03;;;8.95;;
71176;SDS011;58877;51.992;4.504;2024-03-25T07:58:46;9.24;;;9.10;;
71176;SDS011;58877;51.992;4.504;2024-03-25T08:01:14;9.94;;;9.76;;
71176;SDS011;58877;51.992;4.504;2024-03-25T08:03:42;9.40;;;9.31;;
71176;SDS011;58877;51.992;4.504;2024-03-25T08:06:12;9.79;;;9.63;;
71176;SDS011;58877;51.992;4.504;2024-03-25T08:08:47;9.43;;;9.40;;
71176;SDS011;58877;51.992;4.504;2024-03-25T08:11:20;9.75;;;9.75;;
71176;SDS011;58877;51.992;4.504;2024-03-25T08:13:46;9.98;;;9.93;;
71176;SDS011;58877;51.992;4.504;2024-03-25T08:16:12;10.45;;;10.37;;
71176;SDS011;58877;51.992;4.504;2024-03-25T08:18:38;8.91;;;8.88;;
71176;SDS011;58877;51.992;4.504;2024-03-25T08:21:04;9.34;;;9.31;;
71176;SDS011;58877;51.992;4.504;2024-03-25T08:23:30;9.18;;;9.17;;
71176;SDS011;58877;51.992;4.504;2024-03-25T08:25:56;8.98;;;8.96;;
71176;SDS011;58877;51.992;4.504;2024-03-25T08:28:21;8.61;;;8.61;;
71176;SDS011;58877;51.992;4.504;2024-03-25T08:30:49;8.35;;;8.35;;
71176;SDS011;58877;51.992;4.504;2024-03-25T08:33:15;7.71;;;7.71;;
71176;SDS011;58877;51.992;4.504;2024-03-25T08:35:41;8.60;;;8.60;;
71176;SDS011;58877;51.992;4.504;2024-03-25T08:38:07;7.96;;;7.95;;
71176;SDS011;58877;51.992;4.504;2024-03-25T08:40:33;7.92;;;7.92;;
71176;SDS011;58877;51.992;4.504;2024-03-25T08:43:02;7.06;;;7.05;;
71176;SDS011;58877;51.992;4.504;2024-03-25T08:45:30;7.28;;;7.27;;
71176;SDS011;58877;51.992;4.504;2024-03-25T08:47:56;6.81;;;6.79;;
71176;SDS011;58877;51.992;4.504;2024-03-25T08:50:25;6.24;;;6.23;;
71176;SDS011;58877;51.992;4.504;2024-03-25T08:52:54;6.39;;;6.36;;
71176;SDS011;58877;51.992;4.504;2024-03-25T08:55:19;6.54;;;6.53;;
71176;SDS011;58877;51.992;4.504;2024-03-25T08:57:45;6.58;;;6.58;;
71176;SDS011;58877;51.992;4.504;2024-03-25T09:00:11;6.67;;;6.63;;
71176;SDS011;58877;51.992;4.504;2024-03-25T09:02:37;6.70;;;6.67;;
71176;SDS011;58877;51.992;4.504;2024-03-25T09:05:03;6.15;;;6.12;;
71176;SDS011;58877;51.992;4.504;2024-03-25T09:07:35;6.48;;;6.43;;
71176;SDS011;58877;51.992;4.504;2024-03-25T09:10:01;6.84;;;6.83;;
71176;SDS011;58877;51.992;4.504;2024-03-25T09:12:46;7.20;;;7.19;;
71176;SDS011;58877;51.992;4.504;2024-03-25T09:15:15;8.15;;;8.12;;
71176;SDS011;58877;51.992;4.504;2024-03-25T09:17:40;7.91;;;7.87;;
71176;SDS011;58877;51.992;4.504;2024-03-25T09:20:06;7.77;;;7.76;;
71176;SDS011;58877;51.992;4.504;2024-03-25T09:22:44;8.27;;;8.25;;
71176;SDS011;58877;51.992;4.504;2024-03-25T09:25:12;8.31;;;8.28;;
71176;SDS011;58877;51.992;4.504;2024-03-25T09:27:38;8.33;;;8.31;;
71176;SDS011;58877;51.992;4.504;2024-03-25T09:30:31;8.32;;;8.32;;
71176;SDS011;58877;51.992;4.504;2024-03-25T09:33:00;8.94;;;8.90;;
71176;SDS011;58877;51.992;4.504;2024-03-25T09:35:26;9.59;;;9.56;;
71176;SDS011;58877;51.992;4.504;2024-03-25T09:37:52;10.06;;;10.05;;
71176;SDS011;58877;51.992;4.504;2024-03-25T09:40:18;11.22;;;11.22;;
71176;SDS011;58877;51.992;4.504;2024-03-25T09:42:48;10.02;;;10.00;;
71176;SDS011;58877;51.992;4.504;2024-03-25T09:45:20;9.67;;;9.64;;
71176;SDS011;58877;51.992;4.504;2024-03-25T09:47:55;9.58;;;9.57;;
71176;SDS011;58877;51.992;4.504;2024-03-25T09:50:22;9.96;;;9.95;;
71176;SDS011;58877;51.992;4.504;2024-03-25T09:52:48;9.83;;;9.82;;
71176;SDS011;58877;51.992;4.504;2024-03-25T09:55:15;10.66;;;10.63;;
71176;SDS011;58877;51.992;4.504;2024-03-25T09:57:44;11.02;;;11.02;;
71176;SDS011;58877;51.992;4.504;2024-03-25T10:00:11;10.88;;;10.87;;
71176;SDS011;58877;51.992;4.504;2024-03-25T10:02:38;9.76;;;9.75;;
71176;SDS011;58877;51.992;4.504;2024-03-25T10:05:05;9.69;;;9.69;;
71176;SDS011;58877;51.992;4.504;2024-03-25T10:07:32;10.49;;;10.47;;
71176;SDS011;58877;51.992;4.504;2024-03-25T10:09:58;10.70;;;10.70;;
71176;SDS011;58877;51.992;4.504;2024-03-25T10:12:24;11.29;;;11.28;;
71176;SDS011;58877;51.992;4.504;2024-03-25T10:14:53;10.17;;;10.17;;
71176;SDS011;58877;51.992;4.504;2024-03-25T10:17:22;10.35;;;10.35;;
71176;SDS011;58877;51.992;4.504;2024-03-25T10:19:48;10.91;;;10.91;;
71176;SDS011;58877;51.992;4.504;2024-03-25T10:22:14;10.72;;;10.71;;
71176;SDS011;58877;51.992;4.504;2024-03-25T10:24:44;9.62;;;9.56;;
71176;SDS011;58877;51.992;4.504;2024-03-25T10:27:20;9.59;;;9.57;;
71176;SDS011;58877;51.992;4.504;2024-03-25T10:29:54;9.50;;;9.49;;
71176;SDS011;58877;51.992;4.504;2024-03-25T10:32:23;10.13;;;10.13;;
71176;SDS011;58877;51.992;4.504;2024-03-25T10:34:50;9.12;;;9.12;;
71176;SDS011;58877;51.992;4.504;2024-03-25T10:37:16;10.29;;;10.29;;
71176;SDS011;58877;51.992;4.504;2024-03-25T10:39:43;10.53;;;10.52;;
71176;SDS011;58877;51.992;4.504;2024-03-25T10:42:14;10.52;;;10.51;;
71176;SDS011;58877;51.992;4.504;2024-03-25T10:44:47;7.84;;;7.82;;
71176;SDS011;58877;51.992;4.504;2024-03-25T10:47:15;7.63;;;7.63;;
71176;SDS011;58877;51.992;4.504;2024-03-25T10:49:56;6.78;;;6.77;;
71176;SDS011;58877;51.992;4.504;2024-03-25T10:52:24;7.57;;;7.55;;
71176;SDS011;58877;51.992;4.504;2024-03-25T10:54:52;7.91;;;7.89;;
71176;SDS011;58877;51.992;4.504;2024-03-25T10:57:22;8.68;;;8.61;;
71176;SDS011;58877;51.992;4.504;2024-03-25T10:59:48;8.26;;;8.18;;
71176;SDS011;58877;51.992;4.504;2024-03-25T11:02:15;7.25;;;7.22;;
71176;SDS011;58877;51.992;4.504;2024-03-25T11:04:42;7.69;;;7.65;;
71176;SDS011;58877;51.992;4.504;2024-03-25T11:07:11;7.97;;;7.91;;
71176;SDS011;58877;51.992;4.504;2024-03-25T11:09:37;7.89;;;7.87;;
71176;SDS011;58877;51.992;4.504;2024-03-25T11:12:04;7.36;;;7.31;;
71176;SDS011;58877;51.992;4.504;2024-03-25T11:14:31;7.67;;;7.62;;
71176;SDS011;58877;51.992;4.504;2024-03-25T11:17:00;6.35;;;6.32;;
71176;SDS011;58877;51.992;4.504;2024-03-25T11:19:28;6.70;;;6.70;;
71176;SDS011;58877;51.992;4.504;2024-03-25T11:22:05;6.10;;;6.08;;
71176;SDS011;58877;51.992;4.504;2024-03-25T11:24:37;6.56;;;6.50;;
71176;SDS011;58877;51.992;4.504;2024-03-25T11:27:07;6.77;;;6.72;;
71176;SDS011;58877;51.992;4.504;2024-03-25T11:29:35;7.20;;;7.18;;
71176;SDS011;58877;51.992;4.504;2024-03-25T11:32:03;8.21;;;8.14;;
71176;SDS011;58877;51.992;4.504;2024-03-25T11:34:31;8.42;;;8.30;;
71176;SDS011;58877;51.992;4.504;2024-03-25T11:36:59;8.32;;;8.13;;
71176;SDS011;58877;51.992;4.504;2024-03-25T11:39:29;7.88;;;7.77;;
71176;SDS011;58877;51.992;4.504;2024-03-25T11:41:55;6.19;;;6.08;;
71176;SDS011;58877;51.992;4.504;2024-03-25T11:44:21;7.90;;;7.74;;
71176;SDS011;58877;51.992;4.504;2024-03-25T11:46:51;6.95;;;6.84;;
71176;SDS011;58877;51.992;4.504;2024-03-25T11:49:20;6.41;;;6.29;;
71176;SDS011;58877;51.992;4.504;2024-03-25T11:51:46;6.83;;;6.79;;
71176;SDS011;58877;51.992;4.504;2024-03-25T11:54:12;6.97;;;6.95;;
71176;SDS011;58877;51.992;4.504;2024-03-25T11:56:49;7.82;;;7.76;;
71176;SDS011;58877;51.992;4.504;2024-03-25T11:59:19;7.78;;;7.70;;
71176;SDS011;58877;51.992;4.504;2024-03-25T12:01:48;6.41;;;6.32;;
71176;SDS011;58877;51.992;4.504;2024-03-25T12:04:17;4.68;;;4.60;;
71176;SDS011;58877;51.992;4.504;2024-03-25T12:06:44;5.28;;;5.22;;
71176;SDS011;58877;51.992;4.504;2024-03-25T12:09:11;4.61;;;4.54;;
71176;SDS011;58877;51.992;4.504;2024-03-25T12:11:56;4.34;;;4.31;;
71176;SDS011;58877;51.992;4.504;2024-03-25T12:14:22;4.25;;;4.21;;
71176;SDS011;58877;51.992;4.504;2024-03-25T12:16:48;4.94;;;4.90;;
71176;SDS011;58877;51.992;4.504;2024-03-25T12:19:15;5.11;;;4.97;;
71176;SDS011;58877;51.992;4.504;2024-03-25T12:21:43;4.71;;;4.55;;
71176;SDS011;58877;51.992;4.504;2024-03-25T12:24:12;4.43;;;4.33;;
71176;SDS011;58877;51.992;4.504;2024-03-25T12:26:38;3.98;;;3.92;;
71176;SDS011;58877;51.992;4.504;2024-03-25T12:29:05;4.45;;;4.36;;
71176;SDS011;58877;51.992;4.504;2024-03-25T12:31:31;4.39;;;4.32;;
71176;SDS011;58877;51.992;4.504;2024-03-25T12:33:57;4.36;;;4.33;;
71176;SDS011;58877;51.992;4.504;2024-03-25T12:36:28;4.68;;;4.62;;
71176;SDS011;58877;51.992;4.504;2024-03-25T12:38:59;4.89;;;4.87;;
71176;SDS011;58877;51.992;4.504;2024-03-25T12:41:25;4.25;;;4.25;;
71176;SDS011;58877;51.992;4.504;2024-03-25T12:43:51;5.04;;;4.99;;
71176;SDS011;58877;51.992;4.504;2024-03-25T12:46:19;4.64;;;4.62;;
71176;SDS011;58877;51.992;4.504;2024-03-25T12:48:44;5.69;;;5.67;;
71176;SDS011;58877;51.992;4.504;2024-03-25T12:51:20;5.78;;;5.74;;
71176;SDS011;58877;51.992;4.504;2024-03-25T12:53:46;5.56;;;5.53;;
71176;SDS011;58877;51.992;4.504;2024-03-25T12:56:16;5.97;;;5.93;;
71176;SDS011;58877;51.992;4.504;2024-03-25T12:58:47;5.68;;;5.61;;
71176;SDS011;58877;51.992;4.504;2024-03-25T13:01:31;5.59;;;5.54;;
71176;SDS011;58877;51.992;4.504;2024-03-25T13:04:10;5.26;;;5.25;;
71176;SDS011;58877;51.992;4.504;2024-03-25T13:06:42;5.56;;;5.54;;
71176;SDS011;58877;51.992;4.504;2024-03-25T13:09:08;5.26;;;5.22;;
71176;SDS011;58877;51.992;4.504;2024-03-25T13:11:37;4.33;;;4.31;;
71176;SDS011;58877;51.992;4.504;2024-03-25T13:14:03;3.66;;;3.65;;
71176;SDS011;58877;51.992;4.504;2024-03-25T13:16:33;4.11;;;4.09;;
71176;SDS011;58877;51.992;4.504;2024-03-25T13:19:02;4.20;;;4.18;;
71176;SDS011;58877;51.992;4.504;2024-03-25T13:21:27;4.05;;;4.04;;
71176;SDS011;58877;51.992;4.504;2024-03-25T13:23:53;3.92;;;3.92;;
71176;SDS011;58877;51.992;4.504;2024-03-25T13:26:21;3.84;;;3.83;;
71176;SDS011;58877;51.992;4.504;2024-03-25T13:28:47;3.31;;;3.29;;
71176;SDS011;58877;51.992;4.504;2024-03-25T13:31:18;3.02;;;3.02;;
71176;SDS011;58877;51.992;4.504;2024-03-25T13:33:44;3.04;;;3.04;;
71176;SDS011;58877;51.992;4.504;2024-03-25T13:36:10;3.03;;;3.03;;
71176;SDS011;58877;51.992;4.504;2024-03-25T13:38:36;3.49;;;3.49;;
71176;SDS011;58877;51.992;4.504;2024-03-25T13:41:02;3.49;;;3.49;;
71176;SDS011;58877;51.992;4.504;2024-03-25T13:43:28;3.71;;;3.71;;
71176;SDS011;58877;51.992;4.504;2024-03-25T13:45:54;3.57;;;3.57;;
71176;SDS011;58877;51.992;4.504;2024-03-25T13:48:20;3.42;;;3.42;;
71176;SDS011;58877;51.992;4.504;2024-03-25T13:50:45;3.42;;;3.41;;
71176;SDS011;58877;51.992;4.504;2024-03-25T13:53:11;2.93;;;2.93;;
71176;SDS011;58877;51.992;4.504;2024-03-25T13:55:40;3.15;;;3.13;;
71176;SDS011;58877;51.992;4.504;2024-03-25T13:58:07;3.54;;;3.51;;
71176;SDS011;58877;51.992;4.504;2024-03-25T14:00:33;3.52;;;3.51;;
71176;SDS011;58877;51.992;4.504;2024-03-25T14:03:01;3.40;;;3.40;;
71176;SDS011;58877;51.992;4.504;2024-03-25T14:05:28;3.42;;;3.42;;
71176;SDS011;58877;51.992;4.504;2024-03-25T14:07:54;3.30;;;3.30;;
71176;SDS011;58877;51.992;4.504;2024-03-25T14:10:19;3.60;;;3.56;;
71176;SDS011;58877;51.992;4.504;2024-03-25T14:12:45;3.27;;;3.24;;
71176;SDS011;58877;51.992;4.504;2024-03-25T14:15:11;3.05;;;3.02;;
71176;SDS011;58877;51.992;4.504;2024-03-25T14:17:36;2.96;;;2.96;;
71176;SDS011;58877;51.992;4.504;2024-03-25T14:20:05;2.78;;;2.78;;
71176;SDS011;58877;51.992;4.504;2024-03-25T14:22:32;2.67;;;2.67;;
71176;SDS011;58877;51.992;4.504;2024-03-25T14:24:58;3.19;;;3.19;;
71176;SDS011;58877;51.992;4.504;2024-03-25T14:27:24;2.82;;;2.82;;
71176;SDS011;58877;51.992;4.504;2024-03-25T14:29:50;3.09;;;3.09;;
71176;SDS011;58877;51.992;4.504;2024-03-25T14:32:20;3.43;;;3.43;;
71176;SDS011;58877;51.992;4.504;2024-03-25T14:34:48;2.96;;;2.95;;
71176;SDS011;58877;51.992;4.504;2024-03-25T14:37:16;3.13;;;3.11;;
71176;SDS011;58877;51.992;4.504;2024-03-25T14:39:42;2.88;;;2.87;;
71176;SDS011;58877;51.992;4.504;2024-03-25T14:42:08;3.00;;;2.99;;
71176;SDS011;58877;51.992;4.504;2024-03-25T14:44:37;3.24;;;3.21;;
71176;SDS011;58877;51.992;4.504;2024-03-25T14:47:03;3.21;;;3.17;;
71176;SDS011;58877;51.992;4.504;2024-03-25T14:49:29;3.07;;;3.04;;
71176;SDS011;58877;51.992;4.504;2024-03-25T14:51:56;3.44;;;3.44;;
71176;SDS011;58877;51.992;4.504;2024-03-25T14:54:32;3.01;;;3.00;;
71176;SDS011;58877;51.992;4.504;2024-03-25T14:57:02;3.10;;;3.09;;
71176;SDS011;58877;51.992;4.504;2024-03-25T14:59:28;3.06;;;3.04;;